createdAt,value
2023-05-21T00:02:17.733Z,19.01
2023-05-21T00:04:48.393Z,19.00
2023-05-21T00:07:18.932Z,19.01
2023-05-21T00:09:49.131Z,19.01
2023-05-21T00:12:19.415Z,18.99
2023-05-21T00:14:49.745Z,18.96
2023-05-21T00:17:22.656Z,18.95
2023-05-21T00:19:53.066Z,18.92
2023-05-21T00:22:23.239Z,18.90
2023-05-21T00:24:53.363Z,18.90
2023-05-21T00:27:23.468Z,18.88
2023-05-21T00:29:53.691Z,18.85
2023-05-21T00:32:26.550Z,18.82
2023-05-21T00:34:58.457Z,18.84
2023-05-21T00:37:29.977Z,18.83
2023-05-21T00:40:00.141Z,18.82
2023-05-21T00:42:30.877Z,18.78
2023-05-21T00:45:03.838Z,18.74
2023-05-21T00:47:37.938Z,18.74
2023-05-21T00:50:10.302Z,18.74
2023-05-21T00:52:42.325Z,18.67
2023-05-21T00:55:13.959Z,18.64
2023-05-21T00:57:46.216Z,18.62
2023-05-21T01:00:18.137Z,18.60
2023-05-21T01:02:51.235Z,18.59
2023-05-21T01:05:22.468Z,18.57
2023-05-21T01:07:52.813Z,18.60
2023-05-21T01:10:23.686Z,18.58
2023-05-21T01:12:54.934Z,18.57
2023-05-21T01:15:25.098Z,18.60
2023-05-21T01:17:58.027Z,18.59
2023-05-21T01:20:28.194Z,18.60
2023-05-21T01:23:01.024Z,18.58
2023-05-21T01:25:31.168Z,18.59
2023-05-21T01:28:01.290Z,18.59
2023-05-21T01:30:31.560Z,18.60
2023-05-21T01:33:05.981Z,18.60
2023-05-21T01:35:39.010Z,18.60
2023-05-21T01:38:20.778Z,18.59
2023-05-21T01:40:58.837Z,18.57
2023-05-21T01:43:32.221Z,18.54
2023-05-21T01:46:04.360Z,18.52
2023-05-21T01:48:37.806Z,18.51
2023-05-21T01:51:09.438Z,18.50
2023-05-21T01:53:42.397Z,18.52
2023-05-21T01:56:12.818Z,18.47
2023-05-21T01:58:44.146Z,18.47
2023-05-21T02:01:14.700Z,18.48
2023-05-21T02:03:44.888Z,18.43
2023-05-21T02:06:15.182Z,18.40
2023-05-21T02:08:48.794Z,18.39
2023-05-21T02:11:19.025Z,18.38
2023-05-21T02:13:49.748Z,18.36
2023-05-21T02:16:22.711Z,18.32
2023-05-21T02:18:54.575Z,18.28
2023-05-21T02:21:24.807Z,18.28
2023-05-21T02:23:57.463Z,18.26
2023-05-21T02:26:27.596Z,18.25
2023-05-21T02:28:57.728Z,18.19
2023-05-21T02:31:27.817Z,18.19
2023-05-21T02:33:58.304Z,18.16
2023-05-21T02:36:29.021Z,18.09
2023-05-21T02:39:01.978Z,18.07
2023-05-21T02:41:32.376Z,18.04
2023-05-21T02:44:02.601Z,18.01
2023-05-21T02:46:33.709Z,17.98
2023-05-21T02:49:03.916Z,17.90
2023-05-21T02:51:34.241Z,17.91
2023-05-21T02:54:07.203Z,17.91
2023-05-21T02:56:37.357Z,17.88
2023-05-21T02:59:07.590Z,17.91
2023-05-21T03:01:38.783Z,17.94
2023-05-21T03:04:09.224Z,17.97
2023-05-21T03:06:39.616Z,17.99
2023-05-21T03:09:12.355Z,18.01
2023-05-21T03:11:42.525Z,18.01
2023-05-21T03:14:12.814Z,17.99
2023-05-21T03:16:43.827Z,17.99
2023-05-21T03:19:16.065Z,18.02
2023-05-21T03:21:46.518Z,18.01
2023-05-21T03:24:19.210Z,17.97
2023-05-21T03:26:50.485Z,17.97
2023-05-21T03:29:20.941Z,17.99
2023-05-21T03:31:51.695Z,17.97
2023-05-21T03:34:21.874Z,17.94
2023-05-21T03:36:53.573Z,17.95
2023-05-21T03:39:27.727Z,17.95
2023-05-21T03:41:59.308Z,17.97
2023-05-21T03:44:44.793Z,18.01
2023-05-21T03:47:42.073Z,18.07
2023-05-21T03:50:13.943Z,18.10
2023-05-21T03:52:44.244Z,18.11
2023-05-21T03:55:17.433Z,18.12
2023-05-21T03:57:48.370Z,18.14
2023-05-21T04:00:19.204Z,18.19
2023-05-21T04:02:51.457Z,18.27
2023-05-21T04:05:21.926Z,18.32
2023-05-21T04:07:52.688Z,18.35
2023-05-21T04:10:26.106Z,18.36
2023-05-21T04:12:56.317Z,18.42
2023-05-21T04:15:27.733Z,18.43
2023-05-21T04:17:58.787Z,18.58
2023-05-21T04:20:29.012Z,18.68
2023-05-21T04:22:59.414Z,18.84
2023-05-21T04:25:32.858Z,19.04
2023-05-21T04:28:03.391Z,19.20
2023-05-21T04:30:35.707Z,19.30
2023-05-21T04:33:07.597Z,19.46
2023-05-21T04:35:38.414Z,19.57
2023-05-21T04:38:08.737Z,19.71
2023-05-21T04:40:42.569Z,19.90
2023-05-21T04:43:12.851Z,20.05
2023-05-21T04:45:43.305Z,20.21
2023-05-21T04:48:15.930Z,20.34
2023-05-21T04:50:46.173Z,20.49
2023-05-21T04:53:16.379Z,20.65
2023-05-21T04:55:49.417Z,20.80
2023-05-21T04:58:20.678Z,21.02
2023-05-21T05:00:52.118Z,21.20
2023-05-21T05:03:23.849Z,21.29
2023-05-21T05:05:54.403Z,21.39
2023-05-21T05:08:24.557Z,21.49
2023-05-21T05:10:57.387Z,21.59
2023-05-21T05:13:27.560Z,21.73
2023-05-21T05:15:57.719Z,21.88
2023-05-21T05:18:27.916Z,22.01
2023-05-21T05:20:58.168Z,22.08
2023-05-21T05:23:28.376Z,22.12
2023-05-21T05:26:01.161Z,22.14
2023-05-21T05:28:31.360Z,22.23
2023-05-21T05:31:02.557Z,22.30
2023-05-21T05:33:32.748Z,22.36
2023-05-21T05:36:03.154Z,22.47
2023-05-21T05:38:33.506Z,22.46
2023-05-21T05:41:06.526Z,22.54
2023-05-21T05:43:36.695Z,22.60
2023-05-21T05:46:07.248Z,22.68
2023-05-21T05:48:37.491Z,22.87
2023-05-21T05:51:08.520Z,22.95
2023-05-21T05:53:39.134Z,23.01
2023-05-21T05:56:12.305Z,23.17
2023-05-21T05:58:42.597Z,23.23
2023-05-21T06:01:16.611Z,23.33
2023-05-21T06:03:47.677Z,23.39
2023-05-21T06:06:20.938Z,23.49
2023-05-21T06:08:51.991Z,23.47
2023-05-21T06:11:26.272Z,23.27
2023-05-21T06:13:56.901Z,23.18
2023-05-21T06:16:27.248Z,23.33
2023-05-21T06:18:58.027Z,23.49
2023-05-21T06:21:28.379Z,23.47
2023-05-21T06:23:58.736Z,23.45
2023-05-21T06:26:32.028Z,23.43
2023-05-21T06:29:06.578Z,23.48
2023-05-21T06:31:36.953Z,23.51
2023-05-21T06:34:07.788Z,23.43
2023-05-21T06:36:38.121Z,23.37
2023-05-21T06:39:08.380Z,23.38
2023-05-21T06:41:43.845Z,23.36
2023-05-21T06:44:40.297Z,23.22
2023-05-21T06:47:26.528Z,23.17
2023-05-21T06:49:56.869Z,23.23
2023-05-21T06:52:27.548Z,23.39
2023-05-21T06:54:57.836Z,23.49
2023-05-21T06:57:33.252Z,23.43
2023-05-21T07:00:03.618Z,23.46
2023-05-21T07:02:36.738Z,23.50
2023-05-21T07:05:08.221Z,23.48
2023-05-21T07:07:38.689Z,23.45
2023-05-21T07:10:10.289Z,23.31
2023-05-21T07:12:44.488Z,23.27
2023-05-21T07:15:14.929Z,23.31
2023-05-21T07:17:45.152Z,23.31
2023-05-21T07:20:16.625Z,23.36
2023-05-21T07:22:50.913Z,23.35
2023-05-21T07:25:21.329Z,23.32
2023-05-21T07:27:54.221Z,23.42
2023-05-21T07:30:24.445Z,23.67
2023-05-21T07:32:55.797Z,23.96
2023-05-21T07:35:27.366Z,24.30
2023-05-21T07:37:57.870Z,24.79
2023-05-21T07:40:28.203Z,25.43
2023-05-21T07:43:01.169Z,25.98
2023-05-21T07:45:33.522Z,26.48
2023-05-21T07:48:03.978Z,27.14
2023-05-21T07:50:36.357Z,27.58
2023-05-21T07:53:06.538Z,27.98
2023-05-21T07:55:38.395Z,28.27
2023-05-21T07:58:11.902Z,28.59
2023-05-21T08:00:47.268Z,28.60
2023-05-21T08:03:19.235Z,28.73
2023-05-21T08:05:51.359Z,28.89
2023-05-21T08:08:22.653Z,29.15
2023-05-21T08:10:55.659Z,29.37
2023-05-21T08:13:31.072Z,29.61
2023-05-21T08:16:01.917Z,29.66
2023-05-21T08:18:32.809Z,29.81
2023-05-21T08:21:04.551Z,30.08
2023-05-21T08:23:35.841Z,30.13
2023-05-21T08:26:07.167Z,30.03
2023-05-21T08:28:44.122Z,29.99
2023-05-21T08:31:15.578Z,30.01
2023-05-21T08:33:53.649Z,30.01
2023-05-21T08:36:34.550Z,30.33
2023-05-21T08:39:15.548Z,30.77
2023-05-21T08:41:49.939Z,30.98
2023-05-21T08:44:24.522Z,31.07
2023-05-21T08:46:56.306Z,31.22
2023-05-21T08:49:33.970Z,31.30
2023-05-21T08:52:06.125Z,31.30
2023-05-21T08:54:39.996Z,31.13
2023-05-21T08:57:13.954Z,30.79
2023-05-21T08:59:47.236Z,30.57
2023-05-21T09:02:25.694Z,30.80
2023-05-21T09:04:59.612Z,31.16
2023-05-21T09:07:33.748Z,31.32
2023-05-21T09:10:35.391Z,31.32
2023-05-21T09:13:08.201Z,31.47
2023-05-21T09:15:43.261Z,31.84
2023-05-21T09:18:14.386Z,32.31
2023-05-21T09:20:55.354Z,32.48
2023-05-21T09:23:27.287Z,32.55
2023-05-21T09:25:57.672Z,32.35
2023-05-21T09:28:34.130Z,32.21
2023-05-21T09:31:08.402Z,32.04
2023-05-21T09:33:38.928Z,31.67
2023-05-21T09:36:11.780Z,31.44
2023-05-21T09:38:42.456Z,31.28
2023-05-21T09:41:12.761Z,31.14
2023-05-21T09:43:45.958Z,31.34
2023-05-21T09:46:28.663Z,31.46
2023-05-21T09:49:13.699Z,31.30
2023-05-21T09:51:47.111Z,30.98
2023-05-21T09:54:17.328Z,31.02
2023-05-21T09:56:47.523Z,31.39
2023-05-21T09:59:17.660Z,31.70
2023-05-21T10:01:53.206Z,31.98
2023-05-21T10:04:29.021Z,32.19
2023-05-21T10:06:59.835Z,32.16
2023-05-21T10:09:31.446Z,32.18
2023-05-21T10:12:02.720Z,32.60
2023-05-21T10:14:35.332Z,32.91
2023-05-21T10:17:09.478Z,33.05
2023-05-21T10:19:40.782Z,33.19
2023-05-21T10:22:12.745Z,33.15
2023-05-21T10:24:43.646Z,33.17
2023-05-21T10:27:14.897Z,33.28
2023-05-21T10:29:47.303Z,33.37
2023-05-21T10:32:20.242Z,33.58
2023-05-21T10:34:51.795Z,33.93
2023-05-21T10:37:23.399Z,34.15
2023-05-21T10:39:53.823Z,34.54
2023-05-21T10:42:45.364Z,34.68
2023-05-21T10:45:25.215Z,34.46
2023-05-21T10:48:19.450Z,34.49
2023-05-21T10:51:09.434Z,34.88
2023-05-21T10:53:51.114Z,35.15
2023-05-21T10:56:27.473Z,35.38
2023-05-21T10:59:15.516Z,35.71
2023-05-21T11:01:53.062Z,36.22
2023-05-21T11:04:30.136Z,36.38
2023-05-21T11:07:02.127Z,36.55
2023-05-21T11:09:32.262Z,36.90
2023-05-21T11:12:08.295Z,36.83
2023-05-21T11:14:43.454Z,36.87
2023-05-21T11:17:16.098Z,37.11
2023-05-21T11:19:51.624Z,37.11
2023-05-21T11:22:26.747Z,36.66
2023-05-21T11:24:58.485Z,36.42
2023-05-21T11:27:39.318Z,36.24
2023-05-21T11:30:11.011Z,35.91
2023-05-21T11:32:42.465Z,35.51
2023-05-21T11:35:17.179Z,35.04
2023-05-21T11:37:56.489Z,34.73
2023-05-21T11:40:30.712Z,34.18
2023-05-21T11:43:01.231Z,33.97
2023-05-21T11:45:34.054Z,33.70
2023-05-21T11:48:08.288Z,33.77
2023-05-21T11:50:45.277Z,34.70
2023-05-21T11:53:18.595Z,35.50
2023-05-21T11:55:57.944Z,36.18
2023-05-21T11:58:32.195Z,36.74
2023-05-21T12:01:05.320Z,36.82
2023-05-21T12:03:38.560Z,36.71
2023-05-21T12:06:12.429Z,36.23
2023-05-21T12:08:43.334Z,36.06
2023-05-21T12:11:13.602Z,36.45
2023-05-21T12:13:44.261Z,37.17
2023-05-21T12:16:15.232Z,37.83
2023-05-21T12:18:48.486Z,38.31
2023-05-21T12:21:31.871Z,38.30
2023-05-21T12:24:04.195Z,38.57
2023-05-21T12:26:38.907Z,38.53
2023-05-21T12:29:15.075Z,38.14
2023-05-21T12:31:57.140Z,38.00
2023-05-21T12:34:44.699Z,38.39
2023-05-21T12:37:20.003Z,38.62
2023-05-21T12:39:53.178Z,38.63
2023-05-21T12:42:30.222Z,38.44
2023-05-21T12:45:01.390Z,38.34
2023-05-21T12:47:31.926Z,38.39
2023-05-21T12:50:03.835Z,38.78
2023-05-21T12:52:36.763Z,38.73
2023-05-21T12:55:23.038Z,38.26
2023-05-21T12:58:08.794Z,38.21
2023-05-21T13:00:39.956Z,38.35
2023-05-21T13:03:10.838Z,37.99
2023-05-21T13:05:44.221Z,37.36
2023-05-21T13:08:19.246Z,37.07
2023-05-21T13:10:51.953Z,37.41
2023-05-21T13:13:22.454Z,37.91
2023-05-21T13:16:09.900Z,37.73
2023-05-21T13:18:40.274Z,36.85
2023-05-21T13:21:11.664Z,36.36
2023-05-21T13:23:44.752Z,35.45
2023-05-21T13:26:14.976Z,34.72
2023-05-21T13:28:48.491Z,34.07
2023-05-21T13:31:18.639Z,33.45
2023-05-21T13:33:49.317Z,32.83
2023-05-21T13:36:22.546Z,32.26
2023-05-21T13:38:56.604Z,32.06
2023-05-21T13:41:26.890Z,31.98
2023-05-21T13:43:57.504Z,31.99
2023-05-21T13:46:27.911Z,31.94
2023-05-21T13:48:58.694Z,31.81
2023-05-21T13:51:38.688Z,31.63
2023-05-21T13:54:16.781Z,31.46
2023-05-21T13:56:47.004Z,31.34
2023-05-21T13:59:19.795Z,31.13
2023-05-21T14:01:52.421Z,31.01
2023-05-21T14:04:23.408Z,30.80
2023-05-21T14:06:56.447Z,30.80
2023-05-21T14:09:30.042Z,30.88
2023-05-21T14:12:06.363Z,30.86
2023-05-21T14:14:38.067Z,30.88
2023-05-21T14:17:09.335Z,30.85
2023-05-21T14:19:42.980Z,30.86
2023-05-21T14:22:13.417Z,30.82
2023-05-21T14:24:46.288Z,30.79
2023-05-21T14:27:16.673Z,30.76
2023-05-21T14:29:46.877Z,30.75
2023-05-21T14:32:18.699Z,30.80
2023-05-21T14:34:51.533Z,30.75
2023-05-21T14:37:21.753Z,30.71
2023-05-21T14:39:54.537Z,30.68
2023-05-21T14:42:25.359Z,30.63
2023-05-21T14:44:55.524Z,30.63
2023-05-21T14:47:25.678Z,30.62
2023-05-21T14:49:56.354Z,30.53
2023-05-21T14:52:27.137Z,30.48
2023-05-21T14:55:04.962Z,30.42
2023-05-21T14:57:40.205Z,30.38
2023-05-21T15:00:11.864Z,30.27
2023-05-21T15:02:42.365Z,30.13
2023-05-21T15:05:13.058Z,30.07
2023-05-21T15:07:43.979Z,30.03
2023-05-21T15:10:18.639Z,29.96
2023-05-21T15:12:49.242Z,30.00
2023-05-21T15:15:21.136Z,30.00
2023-05-21T15:17:51.792Z,30.00
2023-05-21T15:20:24.538Z,30.02
2023-05-21T15:23:08.761Z,30.07
2023-05-21T15:25:49.637Z,30.10
2023-05-21T15:28:23.227Z,30.07
2023-05-21T15:30:53.533Z,30.09
2023-05-21T15:33:23.760Z,29.97
2023-05-21T15:35:54.149Z,29.77
2023-05-21T15:38:24.393Z,29.60
2023-05-21T15:40:57.293Z,29.51
2023-05-21T15:43:27.783Z,29.53
2023-05-21T15:45:59.932Z,29.64
2023-05-21T15:48:30.068Z,29.72
2023-05-21T15:51:00.157Z,29.64
2023-05-21T15:53:30.259Z,29.63
2023-05-21T15:56:03.477Z,29.62
2023-05-21T15:58:34.117Z,29.52
2023-05-21T16:01:04.449Z,29.41
2023-05-21T16:03:34.729Z,29.43
2023-05-21T16:06:06.559Z,29.45
2023-05-21T16:08:41.667Z,29.41
2023-05-21T16:11:14.554Z,29.29
2023-05-21T16:13:44.767Z,29.22
2023-05-21T16:16:27.498Z,29.19
2023-05-21T16:19:01.022Z,29.15
2023-05-21T16:21:32.036Z,29.11
2023-05-21T16:24:03.474Z,29.14
2023-05-21T16:26:36.360Z,29.06
2023-05-21T16:29:08.926Z,28.98
2023-05-21T16:31:39.056Z,28.99
2023-05-21T16:34:09.283Z,29.02
2023-05-21T16:36:39.463Z,28.93
2023-05-21T16:39:11.078Z,28.84
2023-05-21T16:41:49.747Z,28.75
2023-05-21T16:44:41.277Z,28.71
2023-05-21T16:47:11.869Z,28.74
2023-05-21T16:49:42.175Z,28.69
2023-05-21T16:52:20.050Z,28.72
2023-05-21T16:54:50.456Z,28.76
2023-05-21T16:57:23.221Z,28.75
2023-05-21T16:59:53.537Z,28.74
2023-05-21T17:02:24.988Z,28.69
2023-05-21T17:04:55.374Z,28.67
2023-05-21T17:07:25.591Z,28.60
2023-05-21T17:09:56.176Z,28.54
2023-05-21T17:12:29.065Z,28.45
2023-05-21T17:15:01.303Z,28.42
2023-05-21T17:17:31.917Z,28.41
2023-05-21T17:20:04.484Z,28.35
2023-05-21T17:22:34.967Z,28.25
2023-05-21T17:25:05.349Z,28.21
2023-05-21T17:27:38.305Z,28.17
2023-05-21T17:30:10.444Z,28.10
2023-05-21T17:32:45.437Z,28.06
2023-05-21T17:35:15.694Z,28.09
2023-05-21T17:37:45.909Z,28.09
2023-05-21T17:40:20.488Z,28.02
2023-05-21T17:42:53.793Z,27.97
2023-05-21T17:45:24.450Z,27.89
2023-05-21T17:47:59.697Z,27.83
2023-05-21T17:50:30.668Z,27.82
2023-05-21T17:53:00.839Z,27.75
2023-05-21T17:55:31.087Z,27.68
2023-05-21T17:58:05.707Z,27.64
2023-05-21T18:00:35.896Z,27.60
2023-05-21T18:03:06.121Z,27.55
2023-05-21T18:05:36.783Z,27.56
2023-05-21T18:08:07.249Z,27.53
2023-05-21T18:10:37.570Z,27.50
2023-05-21T18:13:10.703Z,27.48
2023-05-21T18:15:41.240Z,27.47
2023-05-21T18:18:19.869Z,27.38
2023-05-21T18:20:51.847Z,27.31
2023-05-21T18:23:22.039Z,27.24
2023-05-21T18:25:52.416Z,27.22
2023-05-21T18:28:25.179Z,27.12
2023-05-21T18:30:55.378Z,27.08
2023-05-21T18:33:27.581Z,27.04
2023-05-21T18:35:58.027Z,26.95
2023-05-21T18:38:28.557Z,26.89
2023-05-21T18:40:58.652Z,26.84
2023-05-21T18:43:31.458Z,26.80
2023-05-21T18:46:01.716Z,26.76
2023-05-21T18:48:36.144Z,26.71
2023-05-21T18:51:06.582Z,26.64
2023-05-21T18:53:38.314Z,26.64
2023-05-21T18:56:10.442Z,26.60
2023-05-21T18:58:43.138Z,26.52
2023-05-21T19:01:15.799Z,26.52
2023-05-21T19:03:46.067Z,26.56
2023-05-21T19:06:16.594Z,26.56
2023-05-21T19:08:46.924Z,26.52
2023-05-21T19:11:17.817Z,26.43
2023-05-21T19:13:56.772Z,26.34
2023-05-21T19:16:33.265Z,26.26
2023-05-21T19:19:04.382Z,26.23
2023-05-21T19:21:34.871Z,26.18
2023-05-21T19:24:05.999Z,26.18
2023-05-21T19:26:36.536Z,26.15
2023-05-21T19:29:12.227Z,26.16
2023-05-21T19:31:43.001Z,26.14
2023-05-21T19:34:13.377Z,26.12
2023-05-21T19:36:53.335Z,26.08
2023-05-21T19:39:24.596Z,26.05
2023-05-21T19:41:58.623Z,26.02
2023-05-21T19:44:31.596Z,25.98
2023-05-21T19:47:05.912Z,25.89
2023-05-21T19:49:36.187Z,25.85
2023-05-21T19:52:16.957Z,25.88
2023-05-21T19:54:47.596Z,25.85
2023-05-21T19:57:19.900Z,25.82
2023-05-21T19:59:58.199Z,25.78
2023-05-21T20:02:29.021Z,25.70
2023-05-21T20:05:01.826Z,25.62
2023-05-21T20:07:33.328Z,25.56
2023-05-21T20:10:06.465Z,25.52
2023-05-21T20:12:36.904Z,25.52
2023-05-21T20:15:25.129Z,25.49
2023-05-21T20:18:01.110Z,25.46
2023-05-21T20:20:34.709Z,25.47
2023-05-21T20:23:04.828Z,25.39
2023-05-21T20:25:35.063Z,25.33
2023-05-21T20:28:10.521Z,25.31
2023-05-21T20:31:00.795Z,25.24
2023-05-21T20:33:33.193Z,25.24
2023-05-21T20:36:03.864Z,25.19
2023-05-21T20:38:37.350Z,25.17
2023-05-21T20:41:08.217Z,25.16
2023-05-21T20:43:38.480Z,25.14
2023-05-21T20:46:11.234Z,25.14
2023-05-21T20:48:43.768Z,25.17
2023-05-21T20:51:13.986Z,25.13
2023-05-21T20:53:58.972Z,25.07
2023-05-21T20:56:41.612Z,25.06
2023-05-21T20:59:12.526Z,25.03
2023-05-21T21:01:45.747Z,25.01
2023-05-21T21:04:16.329Z,24.94
2023-05-21T21:06:46.687Z,24.88
2023-05-21T21:09:16.946Z,24.84
2023-05-21T21:11:47.577Z,24.78
2023-05-21T21:14:21.070Z,24.75
2023-05-21T21:16:53.906Z,24.73
2023-05-21T21:19:24.176Z,24.70
2023-05-21T21:21:54.609Z,24.70
2023-05-21T21:24:24.737Z,24.73
2023-05-21T21:26:54.872Z,24.72
2023-05-21T21:29:25.176Z,24.69
2023-05-21T21:31:58.154Z,24.61
2023-05-21T21:34:28.289Z,24.55
2023-05-21T21:36:58.644Z,24.49
2023-05-21T21:39:29.051Z,24.45
2023-05-21T21:41:59.205Z,24.46
2023-05-21T21:44:31.269Z,24.44
2023-05-21T21:47:04.183Z,24.42
2023-05-21T21:49:34.332Z,24.46
2023-05-21T21:52:04.638Z,24.47
2023-05-21T21:54:34.850Z,24.48
2023-05-21T21:57:04.930Z,24.50
2023-05-21T21:59:40.960Z,24.48
2023-05-21T22:02:17.202Z,24.46
2023-05-21T22:04:50.524Z,24.44
2023-05-21T22:10:14.257Z,24.40
2023-05-21T22:12:47.780Z,24.31
2023-05-21T22:15:24.149Z,24.25
2023-05-21T22:17:57.532Z,24.19
2023-05-21T22:20:29.441Z,24.20
2023-05-21T22:22:59.994Z,24.21
2023-05-21T22:25:30.229Z,24.15
2023-05-21T22:28:00.375Z,24.09
2023-05-21T22:30:30.718Z,24.04
2023-05-21T22:33:03.774Z,24.01
2023-05-21T22:35:34.069Z,24.00
2023-05-21T22:38:04.658Z,23.97
2023-05-21T22:40:34.862Z,23.91
2023-05-21T22:43:05.217Z,23.84
2023-05-21T22:45:36.065Z,23.79
2023-05-21T22:48:09.722Z,23.78
2023-05-21T22:50:40.202Z,23.77
2023-05-21T22:53:10.932Z,23.75
2023-05-21T22:55:41.392Z,23.68
2023-05-21T22:58:11.548Z,23.67
2023-05-21T23:00:41.921Z,23.67
2023-05-21T23:03:14.948Z,23.66
2023-05-21T23:05:45.669Z,23.64
2023-05-21T23:08:16.417Z,23.66
2023-05-21T23:10:46.587Z,23.67
2023-05-21T23:13:16.815Z,23.66
2023-05-21T23:15:48.673Z,23.66
2023-05-21T23:18:21.580Z,23.67
2023-05-21T23:20:52.217Z,23.70
2023-05-21T23:23:22.476Z,23.75
2023-05-21T23:25:53.376Z,23.75
2023-05-21T23:28:23.421Z,23.77
2023-05-21T23:30:53.754Z,23.79
2023-05-21T23:33:27.391Z,23.80
2023-05-21T23:35:57.601Z,23.76
2023-05-21T23:38:28.567Z,23.68
2023-05-21T23:40:58.672Z,23.63
2023-05-21T23:43:29.072Z,23.58
2023-05-21T23:45:59.388Z,23.53
2023-05-21T23:48:33.275Z,23.52
2023-05-21T23:51:03.767Z,23.49
2023-05-21T23:53:33.821Z,23.46
2023-05-21T23:56:04.193Z,23.42
2023-05-21T23:58:34.496Z,23.44
